createdAt,value
2022-11-04T00:00:29.932Z,1.50
2022-11-04T00:02:57.037Z,2.28
2022-11-04T00:05:23.583Z,1.67
2022-11-04T00:08:10.400Z,1.30
2022-11-04T00:10:57.219Z,0.75
2022-11-04T00:13:23.772Z,0.73
2022-11-04T00:16:16.390Z,1.02
2022-11-04T00:18:42.968Z,2.33
2022-11-04T00:21:28.026Z,1.88
2022-11-04T00:24:12.924Z,1.67
2022-11-04T00:26:57.876Z,1.45
2022-11-04T00:29:24.486Z,1.88
2022-11-04T00:32:09.701Z,1.35
2022-11-04T00:34:36.271Z,1.05
2022-11-04T00:37:03.252Z,0.93
2022-11-04T00:39:30.081Z,1.30
2022-11-04T00:41:56.641Z,1.52
2022-11-04T00:44:23.223Z,1.52
2022-11-04T00:46:49.769Z,0.82
2022-11-04T00:49:16.344Z,1.27
2022-11-04T00:51:42.913Z,1.48
2022-11-04T00:54:09.529Z,1.10
2022-11-04T00:56:40.155Z,3.30
2022-11-04T00:59:10.407Z,1.13
2022-11-04T01:01:40.489Z,1.33
2022-11-04T01:04:07.223Z,2.13
2022-11-04T01:06:33.816Z,0.95
2022-11-04T01:09:02.025Z,2.38
2022-11-04T01:11:29.515Z,2.45
2022-11-04T01:13:56.414Z,1.73
2022-11-04T01:16:23.672Z,1.50
2022-11-04T01:18:50.479Z,0.95
2022-11-04T01:21:17.431Z,0.70
2022-11-04T01:23:45.821Z,0.70
2022-11-04T01:26:17.533Z,1.88
2022-11-04T01:28:44.394Z,0.68
2022-11-04T01:31:20.748Z,0.73
2022-11-04T01:33:47.642Z,3.40
2022-11-04T01:36:14.412Z,0.80
2022-11-04T01:38:41.158Z,1.60
2022-11-04T01:41:08.501Z,1.48
2022-11-04T01:43:43.806Z,0.93
2022-11-04T01:46:10.364Z,0.60
2022-11-04T01:48:36.928Z,1.00
2022-11-04T01:51:03.503Z,1.00
2022-11-04T01:53:35.167Z,2.10
2022-11-04T01:56:04.436Z,0.90
2022-11-04T01:58:33.268Z,0.93
2022-11-04T02:00:59.909Z,0.60
2022-11-04T02:03:30.157Z,0.80
2022-11-04T02:05:56.678Z,0.68
2022-11-04T02:08:23.251Z,0.80
2022-11-04T02:10:58.288Z,0.70
2022-11-04T02:13:24.886Z,1.92
2022-11-04T02:16:41.418Z,0.60
2022-11-04T02:19:36.940Z,0.80
2022-11-04T02:22:12.304Z,1.35
2022-11-04T02:24:54.036Z,1.67
2022-11-04T02:27:38.813Z,1.13
2022-11-04T02:30:08.485Z,2.97
2022-11-04T02:32:55.974Z,1.65
2022-11-04T02:35:45.733Z,1.80
2022-11-04T02:38:32.943Z,1.13
2022-11-04T02:41:23.885Z,1.05
2022-11-04T02:43:57.930Z,0.80
2022-11-04T02:46:43.026Z,1.30
2022-11-04T02:49:31.776Z,0.88
2022-11-04T02:52:32.775Z,0.90
2022-11-04T02:55:22.435Z,2.33
2022-11-04T02:57:49.047Z,1.80
2022-11-04T03:00:15.837Z,1.45
2022-11-04T03:02:45.183Z,1.30
2022-11-04T03:05:13.706Z,1.13
2022-11-04T03:07:41.357Z,1.80
2022-11-04T03:10:11.160Z,1.00
2022-11-04T03:12:40.256Z,0.40
2022-11-04T03:15:09.395Z,1.45
2022-11-04T03:17:47.567Z,0.63
2022-11-04T03:20:18.378Z,1.05
2022-11-04T03:25:19.247Z,1.55
2022-11-04T03:27:48.019Z,1.98
2022-11-04T03:30:22.155Z,1.67
2022-11-04T03:33:00.928Z,1.20
2022-11-04T03:35:27.607Z,1.38
2022-11-04T03:37:54.193Z,3.33
2022-11-04T03:40:20.799Z,1.33
2022-11-04T03:43:05.206Z,0.95
2022-11-04T03:45:31.800Z,2.15
2022-11-04T03:47:58.410Z,2.15
2022-11-04T03:50:30.055Z,1.98
2022-11-04T03:52:57.354Z,2.38
2022-11-04T03:55:28.213Z,2.35
2022-11-04T03:58:03.811Z,1.17
2022-11-04T04:00:39.266Z,3.03
2022-11-04T04:03:05.746Z,0.90
2022-11-04T04:05:51.502Z,3.03
2022-11-04T04:08:34.967Z,1.63
2022-11-04T04:11:19.072Z,2.08
2022-11-04T04:13:53.841Z,2.90
2022-11-04T04:16:52.827Z,1.40
2022-11-04T04:19:20.877Z,2.22
2022-11-04T04:22:09.707Z,1.42
2022-11-04T04:24:55.640Z,1.70
2022-11-04T04:27:31.030Z,5.28
2022-11-04T04:30:01.944Z,1.98
2022-11-04T04:32:28.951Z,2.30
2022-11-04T04:35:13.999Z,0.77
2022-11-04T04:37:40.598Z,1.40
2022-11-04T04:40:26.266Z,2.65
2022-11-04T04:43:12.022Z,2.45
2022-11-04T04:45:40.039Z,1.42
2022-11-04T04:48:06.654Z,4.13
2022-11-04T04:50:36.159Z,4.30
2022-11-04T04:53:04.270Z,3.92
2022-11-04T04:55:38.858Z,2.42
2022-11-04T04:58:08.262Z,2.30
2022-11-04T05:00:35.174Z,2.28
2022-11-04T05:03:01.770Z,2.03
2022-11-04T05:05:28.456Z,1.05
2022-11-04T05:07:55.075Z,4.43
2022-11-04T05:10:21.767Z,2.75
2022-11-04T05:13:07.169Z,2.28
2022-11-04T05:15:34.406Z,1.10
2022-11-04T05:18:02.347Z,5.00
2022-11-04T05:20:34.414Z,2.72
2022-11-04T05:23:01.115Z,0.67
2022-11-04T05:25:27.664Z,1.23
2022-11-04T05:27:54.240Z,2.08
2022-11-04T05:30:20.891Z,1.75
2022-11-04T05:32:47.651Z,1.48
2022-11-04T05:35:14.235Z,4.20
2022-11-04T05:37:40.879Z,2.95
2022-11-04T05:40:08.039Z,3.72
2022-11-04T05:42:36.840Z,2.60
2022-11-04T05:45:04.406Z,3.25
2022-11-04T05:47:31.019Z,4.22
2022-11-04T05:49:57.569Z,4.38
2022-11-04T05:52:24.239Z,4.30
2022-11-04T05:54:50.779Z,6.22
2022-11-04T05:57:17.312Z,9.38
2022-11-04T05:59:43.853Z,3.00
2022-11-04T06:02:10.635Z,4.28
2022-11-04T06:04:37.420Z,4.82
2022-11-04T06:07:04.063Z,3.17
2022-11-04T06:09:39.324Z,2.90
2022-11-04T06:12:07.969Z,5.78
2022-11-04T06:14:34.522Z,3.47
2022-11-04T06:17:01.255Z,3.75
2022-11-04T06:19:27.832Z,3.97
2022-11-04T06:21:54.439Z,3.05
2022-11-04T06:24:20.995Z,5.68
2022-11-04T06:26:47.578Z,3.35
2022-11-04T06:29:14.108Z,4.20
2022-11-04T06:31:40.670Z,2.78
2022-11-04T06:34:07.302Z,3.22
2022-11-04T06:36:33.858Z,3.63
2022-11-04T06:39:04.719Z,3.38
2022-11-04T06:41:31.740Z,5.70
2022-11-04T06:43:58.306Z,2.83
2022-11-04T06:46:27.652Z,6.15
2022-11-04T06:48:55.688Z,3.67
2022-11-04T06:51:22.447Z,2.90
2022-11-04T06:53:49.088Z,3.25
2022-11-04T06:56:15.653Z,5.20
2022-11-04T06:58:42.339Z,5.75
2022-11-04T07:01:13.699Z,6.22
2022-11-04T07:03:44.221Z,6.35
2022-11-04T07:06:11.235Z,5.03
2022-11-04T07:08:38.051Z,6.50
2022-11-04T07:11:04.678Z,9.57
2022-11-04T07:13:31.262Z,4.47
2022-11-04T07:15:58.098Z,5.43
2022-11-04T07:18:24.724Z,6.30
2022-11-04T07:20:51.732Z,5.93
2022-11-04T07:23:18.333Z,4.13
2022-11-04T07:25:44.895Z,6.40
2022-11-04T07:28:11.924Z,3.47
2022-11-04T07:30:38.756Z,3.88
2022-11-04T07:33:05.303Z,6.15
2022-11-04T07:35:31.889Z,7.60
2022-11-04T07:37:58.462Z,4.70
2022-11-04T07:40:25.006Z,4.70
2022-11-04T07:42:51.553Z,2.35
2022-11-04T07:45:18.168Z,4.78
2022-11-04T07:47:44.832Z,2.42
2022-11-04T07:50:11.761Z,2.78
2022-11-04T07:52:38.698Z,4.28
2022-11-04T07:55:05.859Z,7.28
2022-11-04T07:57:32.472Z,4.05
2022-11-04T07:59:59.575Z,6.47
2022-11-04T08:02:31.100Z,2.67
2022-11-04T08:05:00.630Z,3.65
2022-11-04T08:07:27.211Z,3.70
2022-11-04T08:09:53.870Z,2.50
2022-11-04T08:12:22.192Z,2.83
2022-11-04T08:14:48.772Z,1.95
2022-11-04T08:17:15.612Z,4.15
2022-11-04T08:19:42.166Z,2.47
2022-11-04T08:22:09.119Z,4.00
2022-11-04T08:24:35.788Z,3.85
2022-11-04T08:27:02.832Z,1.92
2022-11-04T08:29:38.489Z,1.95
2022-11-04T08:32:05.823Z,2.60
2022-11-04T08:34:32.380Z,2.10
2022-11-04T08:37:00.320Z,2.08
2022-11-04T08:39:26.969Z,5.60
2022-11-04T08:41:53.637Z,4.63
2022-11-04T08:44:20.479Z,3.72
2022-11-04T08:46:47.428Z,2.08
2022-11-04T08:49:19.682Z,5.53
2022-11-04T08:51:49.658Z,2.22
2022-11-04T08:54:19.048Z,3.05
2022-11-04T08:56:45.705Z,2.88
2022-11-04T08:59:12.589Z,2.00
2022-11-04T09:01:39.661Z,1.10
2022-11-04T09:04:07.036Z,3.70
2022-11-04T09:06:36.674Z,1.92
2022-11-04T09:09:05.562Z,1.67
2022-11-04T09:11:33.786Z,1.90
2022-11-04T09:14:01.306Z,1.70
2022-11-04T09:16:31.589Z,2.55
2022-11-04T09:18:58.641Z,5.30
2022-11-04T09:21:26.374Z,1.80
2022-11-04T09:23:53.259Z,1.65
2022-11-04T09:26:20.375Z,4.97
2022-11-04T09:28:46.936Z,1.80
2022-11-04T09:31:16.002Z,3.13
2022-11-04T09:33:42.876Z,2.63
2022-11-04T09:36:10.578Z,3.78
2022-11-04T09:38:41.187Z,2.50
2022-11-04T09:41:30.394Z,3.08
2022-11-04T09:44:08.975Z,3.17
2022-11-04T09:46:35.563Z,2.60
2022-11-04T09:49:02.752Z,2.47
2022-11-04T09:51:53.106Z,3.00
2022-11-04T09:54:23.403Z,4.25
2022-11-04T09:56:51.491Z,1.60
2022-11-04T09:59:22.029Z,4.15
2022-11-04T10:01:51.556Z,1.77
2022-11-04T10:04:39.909Z,2.83
2022-11-04T10:07:35.511Z,1.85
2022-11-04T10:10:32.413Z,1.83
2022-11-04T10:13:20.590Z,2.20
2022-11-04T10:16:10.441Z,1.98
2022-11-04T10:19:18.557Z,1.73
2022-11-04T10:21:45.552Z,1.60
2022-11-04T10:24:24.864Z,3.72
2022-11-04T10:27:05.622Z,4.80
2022-11-04T10:29:43.399Z,4.72
2022-11-04T10:33:00.722Z,1.42
2022-11-04T10:35:29.659Z,3.83
2022-11-04T10:37:56.503Z,2.30
2022-11-04T10:40:36.455Z,4.50
2022-11-04T10:43:03.339Z,2.78
2022-11-04T10:45:50.621Z,3.30
2022-11-04T10:48:23.211Z,1.52
2022-11-04T10:50:57.498Z,2.67
2022-11-04T10:53:26.385Z,1.77
2022-11-04T10:56:02.038Z,2.22
2022-11-04T10:58:31.521Z,4.82
2022-11-04T11:00:58.711Z,2.25
2022-11-04T11:03:30.870Z,2.17
2022-11-04T11:06:27.403Z,2.10
2022-11-04T11:08:55.645Z,4.88
2022-11-04T11:11:40.694Z,1.95
2022-11-04T11:14:29.704Z,3.45
2022-11-04T11:16:57.163Z,2.35
2022-11-04T11:19:27.537Z,2.42
2022-11-04T11:21:56.440Z,5.38
2022-11-04T11:24:27.751Z,4.32
2022-11-04T11:27:00.732Z,3.50
2022-11-04T11:31:55.620Z,3.22
2022-11-04T11:34:32.591Z,3.10
2022-11-04T11:36:59.721Z,2.97
2022-11-04T11:39:28.207Z,3.92
2022-11-04T11:42:00.825Z,24.42
2022-11-04T11:44:47.705Z,8.85
2022-11-04T11:47:23.014Z,3.28
2022-11-04T11:50:04.904Z,2.67
2022-11-04T11:52:38.245Z,6.35
2022-11-04T11:55:19.676Z,3.55
2022-11-04T12:01:22.037Z,4.75
2022-11-04T12:10:01.163Z,2.00
2022-11-04T12:12:52.952Z,4.10
2022-11-04T12:15:41.573Z,4.95
2022-11-04T12:18:28.542Z,3.17
2022-11-04T12:21:10.194Z,3.15
2022-11-04T12:23:46.339Z,2.45
2022-11-04T12:26:51.483Z,2.55
2022-11-04T12:29:37.010Z,7.80
2022-11-04T12:32:03.655Z,4.55
2022-11-04T12:34:48.696Z,4.18
2022-11-04T12:37:18.691Z,3.28
2022-11-04T12:40:19.117Z,4.55
2022-11-04T12:42:56.304Z,2.58
2022-11-04T12:45:29.393Z,2.20
2022-11-04T12:48:04.848Z,2.65
2022-11-04T12:50:58.861Z,3.45
2022-11-04T12:53:25.519Z,4.20
2022-11-04T12:56:11.656Z,5.47
2022-11-04T12:59:21.910Z,2.78
2022-11-04T13:01:54.255Z,2.80
2022-11-04T13:04:25.970Z,5.05
2022-11-04T13:07:14.694Z,12.30
2022-11-04T13:09:56.414Z,15.48
2022-11-04T13:12:24.971Z,9.10
2022-11-04T13:15:02.530Z,5.80
2022-11-04T13:17:40.077Z,6.18
2022-11-04T13:20:15.943Z,2.28
2022-11-04T13:22:44.666Z,4.57
2022-11-04T13:25:37.781Z,3.00
2022-11-04T13:28:04.474Z,4.43
2022-11-04T13:30:33.854Z,2.08
2022-11-04T13:33:27.896Z,2.33
2022-11-04T13:36:13.227Z,4.60
2022-11-04T13:39:00.748Z,3.25
2022-11-04T13:41:39.810Z,6.80
2022-11-04T13:44:19.139Z,5.65
2022-11-04T13:46:53.731Z,5.85
2022-11-04T13:49:32.372Z,4.07
2022-11-04T13:52:13.702Z,4.60
2022-11-04T13:54:41.991Z,3.75
2022-11-04T13:57:12.463Z,3.17
2022-11-04T13:59:39.652Z,4.18
2022-11-04T14:02:25.634Z,4.90
2022-11-04T14:04:52.293Z,3.20
2022-11-04T14:07:18.974Z,3.60
2022-11-04T14:09:54.367Z,4.18
2022-11-04T14:12:33.405Z,2.20
2022-11-04T14:15:09.256Z,2.67
2022-11-04T14:17:35.767Z,4.80
2022-11-04T14:20:07.861Z,2.58
2022-11-04T14:22:43.634Z,3.83
2022-11-04T14:25:20.996Z,3.10
2022-11-04T14:27:55.291Z,4.88
2022-11-04T14:30:47.234Z,2.38
2022-11-04T14:33:32.476Z,3.30
2022-11-04T14:36:20.028Z,1.73
2022-11-04T14:39:12.729Z,2.35
2022-11-04T14:42:02.406Z,2.00
2022-11-04T14:44:42.112Z,2.28
2022-11-04T14:47:14.955Z,2.78
2022-11-04T14:49:49.146Z,2.50
2022-11-04T14:52:26.857Z,0.98
2022-11-04T14:55:20.748Z,3.67
2022-11-04T14:57:52.503Z,1.27
2022-11-04T15:00:22.327Z,4.07
2022-11-04T15:02:58.285Z,2.45
2022-11-04T15:05:29.747Z,4.95
2022-11-04T15:07:56.303Z,1.42
2022-11-04T15:10:26.330Z,2.55
2022-11-04T15:12:57.301Z,2.75
2022-11-04T15:15:36.431Z,1.80
2022-11-04T15:18:30.307Z,3.67
2022-11-04T15:20:58.945Z,4.05
2022-11-04T15:26:32.673Z,3.47
2022-11-04T15:29:00.986Z,5.20
2022-11-04T15:31:30.767Z,9.50
2022-11-04T15:34:04.820Z,13.38
2022-11-04T15:36:42.071Z,6.53
2022-11-04T15:39:15.230Z,5.43
2022-11-04T15:42:00.929Z,4.25
2022-11-04T15:44:29.909Z,7.18
2022-11-04T15:47:01.547Z,6.38
2022-11-04T15:49:32.579Z,5.15
2022-11-04T15:52:07.447Z,5.38
2022-11-04T15:54:38.689Z,3.33
2022-11-04T15:57:16.098Z,3.35
2022-11-04T15:59:57.913Z,6.93
2022-11-04T16:02:35.446Z,5.10
2022-11-04T16:05:12.886Z,12.15
2022-11-04T16:07:40.932Z,10.85
2022-11-04T16:10:25.100Z,9.27
2022-11-04T16:12:59.834Z,7.53
2022-11-04T16:15:59.845Z,6.40
2022-11-04T16:18:35.919Z,3.85
2022-11-04T16:21:14.822Z,5.90
2022-11-04T16:23:47.433Z,9.55
2022-11-04T16:26:14.084Z,7.43
2022-11-04T16:28:40.817Z,3.72
2022-11-04T16:31:14.701Z,4.70
2022-11-04T16:33:41.325Z,5.88
2022-11-04T16:36:13.997Z,5.57
2022-11-04T16:38:40.554Z,8.45
2022-11-04T16:41:08.552Z,8.02
2022-11-04T16:43:35.179Z,8.23
2022-11-04T16:46:01.821Z,7.75
2022-11-04T16:48:28.417Z,14.30
2022-11-04T16:50:55.158Z,10.45
2022-11-04T16:53:21.779Z,8.07
2022-11-04T16:55:48.548Z,3.88
2022-11-04T16:58:17.806Z,6.03
2022-11-04T17:00:44.585Z,5.97
2022-11-04T17:03:22.289Z,3.60
2022-11-04T17:05:56.677Z,5.85
2022-11-04T17:08:24.196Z,3.10
2022-11-04T17:10:50.895Z,4.53
2022-11-04T17:13:17.444Z,6.88
2022-11-04T17:15:44.101Z,4.60
2022-11-04T17:18:14.529Z,5.63
2022-11-04T17:20:41.580Z,4.40
2022-11-04T17:23:09.543Z,4.97
2022-11-04T17:25:36.267Z,6.30
2022-11-04T17:28:02.856Z,6.28
2022-11-04T17:30:29.433Z,6.07
2022-11-04T17:32:56.078Z,5.97
2022-11-04T17:35:22.919Z,6.25
2022-11-04T17:37:53.756Z,6.38
2022-11-04T17:40:21.852Z,5.95
2022-11-04T17:43:11.932Z,5.97
2022-11-04T17:45:40.006Z,4.55
2022-11-04T17:48:07.453Z,4.72
2022-11-04T17:50:34.272Z,8.27
2022-11-04T17:53:00.934Z,9.00
2022-11-04T17:55:27.957Z,7.35
2022-11-04T17:57:55.368Z,6.07
2022-11-04T18:00:24.424Z,5.22
2022-11-04T18:02:51.148Z,5.53
2022-11-04T18:05:17.824Z,7.75
2022-11-04T18:07:44.437Z,7.43
2022-11-04T18:10:11.461Z,10.00
2022-11-04T18:12:38.199Z,9.52
2022-11-04T18:15:10.183Z,8.45
2022-11-04T18:17:38.282Z,9.85
2022-11-04T18:20:10.721Z,7.82
2022-11-04T18:22:40.104Z,7.18
2022-11-04T18:25:07.345Z,8.05
2022-11-04T18:27:34.023Z,9.02
2022-11-04T18:30:00.597Z,5.35
2022-11-04T18:32:27.158Z,5.63
2022-11-04T18:34:53.769Z,6.93
2022-11-04T18:37:20.565Z,6.93
2022-11-04T18:39:47.162Z,6.68
2022-11-04T18:42:13.754Z,4.55
2022-11-04T18:44:40.620Z,4.85
2022-11-04T18:47:07.174Z,5.10
2022-11-04T18:49:33.797Z,5.78
2022-11-04T18:52:00.400Z,6.10
2022-11-04T18:54:27.076Z,7.75
2022-11-04T18:56:53.684Z,9.65
2022-11-04T18:59:20.276Z,11.63
2022-11-04T19:01:46.973Z,10.20
2022-11-04T19:04:13.842Z,11.23
2022-11-04T19:06:42.528Z,9.00
2022-11-04T19:09:40.595Z,7.18
2022-11-04T19:12:15.879Z,6.05
2022-11-04T19:14:42.507Z,8.30
2022-11-04T19:17:09.708Z,6.70
2022-11-04T19:19:36.416Z,7.57
2022-11-04T19:22:03.298Z,6.78
2022-11-04T19:24:29.878Z,7.88
2022-11-04T19:26:56.449Z,9.30
2022-11-04T19:29:26.084Z,9.02
2022-11-04T19:31:52.735Z,10.02
2022-11-04T19:34:19.344Z,11.07
2022-11-04T19:36:45.941Z,11.50
2022-11-04T19:39:12.595Z,17.75
2022-11-04T19:41:58.011Z,18.83
2022-11-04T19:44:24.630Z,22.48
2022-11-04T19:46:51.350Z,22.60
2022-11-04T19:49:18.315Z,22.52
2022-11-04T19:51:45.311Z,19.23
2022-11-04T19:54:12.161Z,17.30
2022-11-04T19:56:38.958Z,14.95
2022-11-04T19:59:07.496Z,14.15
2022-11-04T20:01:35.440Z,13.52
2022-11-04T20:04:03.580Z,7.60
2022-11-04T20:06:32.287Z,10.63
2022-11-04T20:09:05.360Z,10.75
2022-11-04T20:14:04.736Z,6.68
2022-11-04T20:16:36.839Z,10.80
2022-11-04T20:19:04.824Z,10.07
2022-11-04T20:21:33.638Z,8.50
2022-11-04T20:24:02.023Z,11.20
2022-11-04T20:26:30.010Z,14.57
2022-11-04T20:28:58.388Z,13.73
2022-11-04T20:31:30.042Z,11.30
2022-11-04T20:33:57.632Z,13.32
2022-11-04T20:36:28.547Z,17.50
2022-11-04T20:38:56.436Z,16.65
2022-11-04T20:41:23.004Z,15.02
2022-11-04T20:43:49.795Z,15.65
2022-11-04T20:46:20.889Z,12.93
2022-11-04T20:48:48.011Z,16.73
2022-11-04T20:51:16.496Z,16.15
2022-11-04T20:53:43.540Z,11.70
2022-11-04T20:56:12.431Z,12.55
2022-11-04T20:58:40.186Z,10.75
2022-11-04T21:01:11.810Z,15.73
2022-11-04T21:03:38.392Z,12.68
2022-11-04T21:06:05.106Z,11.88
2022-11-04T21:08:35.075Z,13.70
2022-11-04T21:11:02.232Z,16.15
2022-11-04T21:13:28.798Z,14.43
2022-11-04T21:15:57.670Z,13.70
2022-11-04T21:18:24.930Z,16.55
2022-11-04T21:20:52.160Z,16.23
2022-11-04T21:23:22.555Z,14.55
2022-11-04T21:25:57.281Z,12.40
2022-11-04T21:28:27.337Z,13.48
2022-11-04T21:30:54.621Z,9.20
2022-11-04T21:33:21.451Z,11.68
2022-11-04T21:35:48.857Z,11.73
2022-11-04T21:38:17.074Z,13.20
2022-11-04T21:40:44.475Z,9.60
2022-11-04T21:43:11.611Z,7.32
2022-11-04T21:45:38.231Z,11.55
2022-11-04T21:48:05.240Z,11.68
2022-11-04T21:50:31.947Z,8.10
2022-11-04T21:52:58.715Z,7.88
2022-11-04T21:55:25.441Z,7.65
2022-11-04T21:57:52.030Z,9.93
2022-11-04T22:00:18.718Z,15.10
2022-11-04T22:02:50.623Z,12.05
2022-11-04T22:05:17.431Z,10.55
2022-11-04T22:08:02.479Z,12.63
2022-11-04T22:10:29.401Z,8.00
2022-11-04T22:12:56.296Z,9.65
2022-11-04T22:15:41.395Z,12.10
2022-11-04T22:18:07.958Z,10.88
2022-11-04T22:20:38.471Z,8.88
2022-11-04T22:23:05.091Z,7.35
2022-11-04T22:25:31.688Z,10.00
2022-11-04T22:27:58.356Z,10.20
2022-11-04T22:30:25.161Z,8.52
2022-11-04T22:32:52.557Z,9.77
2022-11-04T22:35:19.221Z,9.02
2022-11-04T22:37:45.948Z,7.45
2022-11-04T22:40:12.940Z,9.57
2022-11-04T22:42:39.526Z,8.63
2022-11-04T22:45:06.547Z,8.02
2022-11-04T22:47:33.108Z,10.40
2022-11-04T22:49:59.727Z,7.18
2022-11-04T22:52:26.502Z,7.90
2022-11-04T22:54:53.054Z,8.30
2022-11-04T22:57:19.662Z,13.88
2022-11-04T22:59:46.280Z,9.40
2022-11-04T23:02:13.023Z,11.00
2022-11-04T23:04:42.526Z,8.63
2022-11-04T23:07:09.076Z,7.47
2022-11-04T23:09:55.611Z,7.53
2022-11-04T23:12:40.587Z,8.13
2022-11-04T23:15:25.979Z,8.18
2022-11-04T23:18:11.072Z,6.25
2022-11-04T23:20:37.656Z,9.13
2022-11-04T23:23:22.660Z,7.63
2022-11-04T23:25:49.262Z,7.72
2022-11-04T23:28:34.370Z,9.48
2022-11-04T23:31:00.933Z,5.07
2022-11-04T23:34:02.550Z,7.88
2022-11-04T23:36:47.400Z,6.72
2022-11-04T23:39:13.974Z,6.25
2022-11-04T23:41:59.083Z,8.35
2022-11-04T23:44:43.889Z,6.70
2022-11-04T23:47:28.965Z,7.95
2022-11-04T23:50:14.144Z,8.60
2022-11-04T23:52:59.154Z,5.40
2022-11-04T23:55:44.044Z,9.30
2022-11-04T23:58:29.238Z,5.75
